sensor_id;sensor_type;location;lat;lon;timestamp;temperature;humidity
40600;DHT22;26309;50.924;4.754;2022-10-16T05:48:20;13.70;99.90
40600;DHT22;26309;50.924;4.754;2022-10-16T05:58:53;13.80;99.90
40600;DHT22;26309;50.924;4.754;2022-10-16T07:24:27;15.30;99.90
40600;DHT22;26309;50.924;4.754;2022-10-16T07:26:55;15.40;99.90
40600;DHT22;26309;50.924;4.754;2022-10-16T07:29:21;15.40;99.90
40600;DHT22;26309;50.924;4.754;2022-10-16T07:31:48;15.40;99.90
40600;DHT22;26309;50.924;4.754;2022-10-16T07:34:16;15.30;99.90
40600;DHT22;26309;50.924;4.754;2022-10-16T07:36:42;15.30;99.90
40600;DHT22;26309;50.924;4.754;2022-10-16T07:39:08;15.20;99.90
40600;DHT22;26309;50.924;4.754;2022-10-16T07:41:34;15.10;99.90
40600;DHT22;26309;50.924;4.754;2022-10-16T07:44:03;15.00;99.90
40600;DHT22;26309;50.924;4.754;2022-10-16T07:46:29;15.00;99.90
40600;DHT22;26309;50.924;4.754;2022-10-16T07:48:55;15.00;99.90
40600;DHT22;26309;50.924;4.754;2022-10-16T07:51:23;15.20;99.90
40600;DHT22;26309;50.924;4.754;2022-10-16T07:53:49;15.40;99.90
40600;DHT22;26309;50.924;4.754;2022-10-16T07:56:17;15.50;99.90
40600;DHT22;26309;50.924;4.754;2022-10-16T07:58:43;15.40;99.90
40600;DHT22;26309;50.924;4.754;2022-10-16T08:01:14;15.40;99.90
40600;DHT22;26309;50.924;4.754;2022-10-16T08:03:47;15.60;99.90
40600;DHT22;26309;50.924;4.754;2022-10-16T08:06:13;15.70;99.90
40600;DHT22;26309;50.924;4.754;2022-10-16T08:08:39;15.90;99.90
40600;DHT22;26309;50.924;4.754;2022-10-16T08:11:06;16.10;99.90
40600;DHT22;26309;50.924;4.754;2022-10-16T08:13:34;16.20;99.90
40600;DHT22;26309;50.924;4.754;2022-10-16T08:16:00;16.30;99.90
40600;DHT22;26309;50.924;4.754;2022-10-16T08:18:27;16.20;99.90
40600;DHT22;26309;50.924;4.754;2022-10-16T08:20:58;16.40;99.90
40600;DHT22;26309;50.924;4.754;2022-10-16T08:23:24;16.40;99.90
40600;DHT22;26309;50.924;4.754;2022-10-16T08:25:55;16.40;99.90
40600;DHT22;26309;50.924;4.754;2022-10-16T08:28:22;16.40;99.90
40600;DHT22;26309;50.924;4.754;2022-10-16T08:30:48;16.60;99.90
40600;DHT22;26309;50.924;4.754;2022-10-16T08:33:14;16.70;99.90
40600;DHT22;26309;50.924;4.754;2022-10-16T08:35:40;16.80;99.90
40600;DHT22;26309;50.924;4.754;2022-10-16T08:38:10;16.80;99.90
40600;DHT22;26309;50.924;4.754;2022-10-16T08:40:44;16.80;99.90
40600;DHT22;26309;50.924;4.754;2022-10-16T08:46:36;16.80;99.90
40600;DHT22;26309;50.924;4.754;2022-10-16T08:49:05;16.70;99.90
40600;DHT22;26309;50.924;4.754;2022-10-16T08:51:37;16.80;99.90
40600;DHT22;26309;50.924;4.754;2022-10-16T08:54:22;16.90;99.90
40600;DHT22;26309;50.924;4.754;2022-10-16T08:57:25;16.80;99.90
40600;DHT22;26309;50.924;4.754;2022-10-16T09:00:22;16.80;99.90
40600;DHT22;26309;50.924;4.754;2022-10-16T09:21:43;17.70;99.90
40600;DHT22;26309;50.924;4.754;2022-10-16T09:24:38;17.90;99.90
40600;DHT22;26309;50.924;4.754;2022-10-16T09:27:19;18.00;99.90
40600;DHT22;26309;50.924;4.754;2022-10-16T09:30:21;18.00;99.90
40600;DHT22;26309;50.924;4.754;2022-10-16T09:33:35;18.00;99.90
40600;DHT22;26309;50.924;4.754;2022-10-16T09:36:13;17.90;99.90
40600;DHT22;26309;50.924;4.754;2022-10-16T09:38:47;17.70;99.90
40600;DHT22;26309;50.924;4.754;2022-10-16T09:41:39;17.80;99.90
40600;DHT22;26309;50.924;4.754;2022-10-16T09:44:39;17.80;99.90
40600;DHT22;26309;50.924;4.754;2022-10-16T09:47:21;18.10;99.90
40600;DHT22;26309;50.924;4.754;2022-10-16T09:49:57;18.10;99.90
40600;DHT22;26309;50.924;4.754;2022-10-16T09:52:28;18.30;99.90
40600;DHT22;26309;50.924;4.754;2022-10-16T09:54:58;18.40;99.90
40600;DHT22;26309;50.924;4.754;2022-10-16T09:57:29;18.50;99.90
40600;DHT22;26309;50.924;4.754;2022-10-16T09:59:57;18.50;99.90
40600;DHT22;26309;50.924;4.754;2022-10-16T10:02:43;18.60;99.90
40600;DHT22;26309;50.924;4.754;2022-10-16T10:05:29;18.40;99.90
40600;DHT22;26309;50.924;4.754;2022-10-16T10:07:58;18.50;99.90
40600;DHT22;26309;50.924;4.754;2022-10-16T10:10:27;18.60;99.90
40600;DHT22;26309;50.924;4.754;2022-10-16T10:12:54;18.80;99.90
40600;DHT22;26309;50.924;4.754;2022-10-16T10:15:21;19.00;99.90
40600;DHT22;26309;50.924;4.754;2022-10-16T10:17:57;18.90;99.90
40600;DHT22;26309;50.924;4.754;2022-10-16T10:20:30;18.50;99.90
40600;DHT22;26309;50.924;4.754;2022-10-16T10:22:58;18.40;99.90
40600;DHT22;26309;50.924;4.754;2022-10-16T10:26:18;18.40;99.90
40600;DHT22;26309;50.924;4.754;2022-10-16T10:28:49;18.90;99.90
40600;DHT22;26309;50.924;4.754;2022-10-16T10:31:41;18.70;99.90
40600;DHT22;26309;50.924;4.754;2022-10-16T10:40:52;19.00;99.90
40600;DHT22;26309;50.924;4.754;2022-10-16T10:43:11;19.20;99.90
40600;DHT22;26309;50.924;4.754;2022-10-16T10:45:44;19.40;99.90
40600;DHT22;26309;50.924;4.754;2022-10-16T10:54:11;19.30;99.90
40600;DHT22;26309;50.924;4.754;2022-10-16T10:56:45;19.40;99.90
40600;DHT22;26309;50.924;4.754;2022-10-16T11:02:22;20.20;99.90
40600;DHT22;26309;50.924;4.754;2022-10-16T11:07:54;20.40;99.10
40600;DHT22;26309;50.924;4.754;2022-10-16T11:10:25;20.10;99.90
40600;DHT22;26309;50.924;4.754;2022-10-16T11:13:04;20.20;99.90
40600;DHT22;26309;50.924;4.754;2022-10-16T11:15:37;20.10;99.50
40600;DHT22;26309;50.924;4.754;2022-10-16T11:18:30;19.90;99.90
40600;DHT22;26309;50.924;4.754;2022-10-16T11:21:02;20.10;99.60
40600;DHT22;26309;50.924;4.754;2022-10-16T11:26:28;20.10;98.10
40600;DHT22;26309;50.924;4.754;2022-10-16T11:28:56;20.30;98.20
40600;DHT22;26309;50.924;4.754;2022-10-16T11:31:35;20.30;97.90
40600;DHT22;26309;50.924;4.754;2022-10-16T11:36:58;20.50;97.60
40600;DHT22;26309;50.924;4.754;2022-10-16T11:39:29;20.50;97.60
40600;DHT22;26309;50.924;4.754;2022-10-16T11:49:41;20.70;96.30
40600;DHT22;26309;50.924;4.754;2022-10-16T11:52:36;20.40;97.00
40600;DHT22;26309;50.924;4.754;2022-10-16T11:55:30;20.20;98.30
40600;DHT22;26309;50.924;4.754;2022-10-16T11:58:02;20.30;97.90
40600;DHT22;26309;50.924;4.754;2022-10-16T12:08:51;19.70;97.50
40600;DHT22;26309;50.924;4.754;2022-10-16T12:16:57;19.70;98.70
40600;DHT22;26309;50.924;4.754;2022-10-16T12:19:26;20.00;98.50
40600;DHT22;26309;50.924;4.754;2022-10-16T12:21:56;20.50;98.90
40600;DHT22;26309;50.924;4.754;2022-10-16T12:24:38;20.70;98.70
40600;DHT22;26309;50.924;4.754;2022-10-16T12:27:30;20.80;97.30
40600;DHT22;26309;50.924;4.754;2022-10-16T12:29:59;21.00;96.10
40600;DHT22;26309;50.924;4.754;2022-10-16T12:32:35;21.20;95.80
40600;DHT22;26309;50.924;4.754;2022-10-16T12:35:03;21.30;95.20
40600;DHT22;26309;50.924;4.754;2022-10-16T12:37:35;21.50;95.30
40600;DHT22;26309;50.924;4.754;2022-10-16T12:40:32;21.60;94.60
40600;DHT22;26309;50.924;4.754;2022-10-16T12:42:58;21.70;94.70
40600;DHT22;26309;50.924;4.754;2022-10-16T12:45:34;21.70;94.80
40600;DHT22;26309;50.924;4.754;2022-10-16T12:48:02;21.70;94.40
40600;DHT22;26309;50.924;4.754;2022-10-16T12:50:34;21.70;94.90
40600;DHT22;26309;50.924;4.754;2022-10-16T12:53:21;21.90;94.90
40600;DHT22;26309;50.924;4.754;2022-10-16T12:55:55;22.00;95.20
40600;DHT22;26309;50.924;4.754;2022-10-16T13:04:02;21.80;94.60
40600;DHT22;26309;50.924;4.754;2022-10-16T13:06:38;21.80;94.00
40600;DHT22;26309;50.924;4.754;2022-10-16T13:15:23;22.10;94.80
40600;DHT22;26309;50.924;4.754;2022-10-16T13:21:29;22.00;93.80
40600;DHT22;26309;50.924;4.754;2022-10-16T13:26:42;22.20;92.30
40600;DHT22;26309;50.924;4.754;2022-10-16T13:29:10;22.20;91.60
40600;DHT22;26309;50.924;4.754;2022-10-16T13:31:38;22.20;92.10
40600;DHT22;26309;50.924;4.754;2022-10-16T13:34:05;22.30;93.50
40600;DHT22;26309;50.924;4.754;2022-10-16T13:36:46;22.30;92.50
40600;DHT22;26309;50.924;4.754;2022-10-16T13:39:15;22.30;91.80
40600;DHT22;26309;50.924;4.754;2022-10-16T13:41:43;22.20;92.30
40600;DHT22;26309;50.924;4.754;2022-10-16T13:44:19;22.20;92.40
40600;DHT22;26309;50.924;4.754;2022-10-16T13:46:59;22.10;94.70
40600;DHT22;26309;50.924;4.754;2022-10-16T13:49:25;22.20;94.60
40600;DHT22;26309;50.924;4.754;2022-10-16T13:51:59;22.30;93.90
40600;DHT22;26309;50.924;4.754;2022-10-16T13:54:27;22.50;92.80
40600;DHT22;26309;50.924;4.754;2022-10-16T13:56:54;22.60;91.80
40600;DHT22;26309;50.924;4.754;2022-10-16T13:59:26;22.50;92.00
40600;DHT22;26309;50.924;4.754;2022-10-16T14:01:56;22.40;91.80
40600;DHT22;26309;50.924;4.754;2022-10-16T14:04:24;22.30;92.50
40600;DHT22;26309;50.924;4.754;2022-10-16T14:06:51;22.20;92.30
40600;DHT22;26309;50.924;4.754;2022-10-16T14:09:24;22.20;92.20
40600;DHT22;26309;50.924;4.754;2022-10-16T14:14:29;22.00;93.20
40600;DHT22;26309;50.924;4.754;2022-10-16T14:16:56;22.00;92.40
40600;DHT22;26309;50.924;4.754;2022-10-16T14:19:25;21.80;92.60
40600;DHT22;26309;50.924;4.754;2022-10-16T14:21:52;21.70;93.20
40600;DHT22;26309;50.924;4.754;2022-10-16T14:24:25;21.40;93.40
40600;DHT22;26309;50.924;4.754;2022-10-16T14:26:52;21.40;93.40
40600;DHT22;26309;50.924;4.754;2022-10-16T14:29:20;21.40;93.50
40600;DHT22;26309;50.924;4.754;2022-10-16T14:31:56;21.30;94.00
40600;DHT22;26309;50.924;4.754;2022-10-16T14:34:28;21.30;94.00
40600;DHT22;26309;50.924;4.754;2022-10-16T14:36:55;21.30;94.30
40600;DHT22;26309;50.924;4.754;2022-10-16T14:39:22;21.30;95.90
40600;DHT22;26309;50.924;4.754;2022-10-16T14:41:54;21.40;96.60
40600;DHT22;26309;50.924;4.754;2022-10-16T14:44:26;21.40;97.20
40600;DHT22;26309;50.924;4.754;2022-10-16T14:46:54;21.40;96.10
40600;DHT22;26309;50.924;4.754;2022-10-16T14:49:22;21.30;97.00
40600;DHT22;26309;50.924;4.754;2022-10-16T14:51:49;21.20;98.50
40600;DHT22;26309;50.924;4.754;2022-10-16T14:54:16;21.00;96.60
40600;DHT22;26309;50.924;4.754;2022-10-16T14:56:55;21.00;96.10
40600;DHT22;26309;50.924;4.754;2022-10-16T14:59:48;21.00;96.20
40600;DHT22;26309;50.924;4.754;2022-10-16T15:02:18;21.10;96.30
40600;DHT22;26309;50.924;4.754;2022-10-16T15:04:47;21.00;96.00
40600;DHT22;26309;50.924;4.754;2022-10-16T15:07:13;21.10;96.00
40600;DHT22;26309;50.924;4.754;2022-10-16T15:09:38;21.00;96.20
40600;DHT22;26309;50.924;4.754;2022-10-16T15:12:04;21.00;96.00
40600;DHT22;26309;50.924;4.754;2022-10-16T15:14:30;21.00;96.10
40600;DHT22;26309;50.924;4.754;2022-10-16T15:16:56;20.80;96.20
40600;DHT22;26309;50.924;4.754;2022-10-16T15:19:22;20.80;96.10
40600;DHT22;26309;50.924;4.754;2022-10-16T15:21:48;20.60;97.30
40600;DHT22;26309;50.924;4.754;2022-10-16T15:24:15;20.50;97.90
40600;DHT22;26309;50.924;4.754;2022-10-16T15:26:41;20.50;99.20
40600;DHT22;26309;50.924;4.754;2022-10-16T15:29:07;20.50;99.20
40600;DHT22;26309;50.924;4.754;2022-10-16T15:31:33;20.50;98.90
40600;DHT22;26309;50.924;4.754;2022-10-16T15:33:59;20.50;99.10
40600;DHT22;26309;50.924;4.754;2022-10-16T15:36:33;20.60;99.60
40600;DHT22;26309;50.924;4.754;2022-10-16T15:39:05;20.60;98.70
40600;DHT22;26309;50.924;4.754;2022-10-16T15:41:36;20.60;98.40
40600;DHT22;26309;50.924;4.754;2022-10-16T15:44:02;20.50;98.40
40600;DHT22;26309;50.924;4.754;2022-10-16T15:46:28;20.50;98.30
40600;DHT22;26309;50.924;4.754;2022-10-16T15:48:57;20.30;98.40
40600;DHT22;26309;50.924;4.754;2022-10-16T15:51:24;20.10;99.10
40600;DHT22;26309;50.924;4.754;2022-10-16T15:53:50;20.00;99.90
40600;DHT22;26309;50.924;4.754;2022-10-16T15:56:17;19.80;99.90
40600;DHT22;26309;50.924;4.754;2022-10-16T15:58:43;19.70;99.90
40600;DHT22;26309;50.924;4.754;2022-10-16T16:01:09;19.70;99.90
40600;DHT22;26309;50.924;4.754;2022-10-16T16:03:37;19.50;99.90
40600;DHT22;26309;50.924;4.754;2022-10-16T16:06:10;19.50;99.90
40600;DHT22;26309;50.924;4.754;2022-10-16T16:08:37;19.40;99.90
40600;DHT22;26309;50.924;4.754;2022-10-16T16:11:09;19.30;99.90
40600;DHT22;26309;50.924;4.754;2022-10-16T16:13:35;19.20;99.90
40600;DHT22;26309;50.924;4.754;2022-10-16T16:16:06;19.20;99.90
40600;DHT22;26309;50.924;4.754;2022-10-16T16:18:33;19.20;99.90
40600;DHT22;26309;50.924;4.754;2022-10-16T16:20:59;19.20;99.90
40600;DHT22;26309;50.924;4.754;2022-10-16T16:23:24;19.10;99.90
40600;DHT22;26309;50.924;4.754;2022-10-16T16:26:22;19.10;99.90
40600;DHT22;26309;50.924;4.754;2022-10-16T16:28:54;18.90;99.90
40600;DHT22;26309;50.924;4.754;2022-10-16T16:31:27;18.90;99.90
40600;DHT22;26309;50.924;4.754;2022-10-16T16:33:54;18.80;99.90
40600;DHT22;26309;50.924;4.754;2022-10-16T16:36:19;18.70;99.90
40600;DHT22;26309;50.924;4.754;2022-10-16T16:38:46;18.50;99.90
40600;DHT22;26309;50.924;4.754;2022-10-16T16:41:18;18.30;99.90
40600;DHT22;26309;50.924;4.754;2022-10-16T16:43:44;18.40;99.90
40600;DHT22;26309;50.924;4.754;2022-10-16T16:46:11;18.40;99.90
40600;DHT22;26309;50.924;4.754;2022-10-16T16:48:37;18.30;99.90
40600;DHT22;26309;50.924;4.754;2022-10-16T16:51:15;18.20;99.90
40600;DHT22;26309;50.924;4.754;2022-10-16T16:53:50;18.10;99.90
40600;DHT22;26309;50.924;4.754;2022-10-16T16:56:16;18.10;99.90
40600;DHT22;26309;50.924;4.754;2022-10-16T16:58:45;18.00;99.90
40600;DHT22;26309;50.924;4.754;2022-10-16T17:01:12;18.00;99.90
40600;DHT22;26309;50.924;4.754;2022-10-16T17:03:41;18.00;99.90
40600;DHT22;26309;50.924;4.754;2022-10-16T17:06:10;17.90;99.90
40600;DHT22;26309;50.924;4.754;2022-10-16T17:08:37;17.70;99.90
40600;DHT22;26309;50.924;4.754;2022-10-16T17:11:04;17.50;99.90
40600;DHT22;26309;50.924;4.754;2022-10-16T17:13:33;17.40;99.90
40600;DHT22;26309;50.924;4.754;2022-10-16T17:16:04;17.40;99.90
40600;DHT22;26309;50.924;4.754;2022-10-16T17:18:32;17.40;99.90
40600;DHT22;26309;50.924;4.754;2022-10-16T17:21:03;17.60;99.90
40600;DHT22;26309;50.924;4.754;2022-10-16T17:23:34;17.50;99.90
40600;DHT22;26309;50.924;4.754;2022-10-16T17:26:12;17.50;99.90
40600;DHT22;26309;50.924;4.754;2022-10-16T17:28:39;17.40;99.90
40600;DHT22;26309;50.924;4.754;2022-10-16T17:31:17;17.30;99.90
40600;DHT22;26309;50.924;4.754;2022-10-16T17:33:43;17.30;99.90
40600;DHT22;26309;50.924;4.754;2022-10-16T17:36:09;17.40;99.90
40600;DHT22;26309;50.924;4.754;2022-10-16T17:38:36;17.20;99.90
40600;DHT22;26309;50.924;4.754;2022-10-16T17:41:22;17.20;99.90
40600;DHT22;26309;50.924;4.754;2022-10-16T17:43:49;17.10;99.90
40600;DHT22;26309;50.924;4.754;2022-10-16T17:46:17;17.10;99.90
40600;DHT22;26309;50.924;4.754;2022-10-16T17:48:45;17.10;99.90
40600;DHT22;26309;50.924;4.754;2022-10-16T17:51:13;17.10;99.90
40600;DHT22;26309;50.924;4.754;2022-10-16T17:53:40;17.10;99.90
40600;DHT22;26309;50.924;4.754;2022-10-16T17:56:13;17.30;99.90
40600;DHT22;26309;50.924;4.754;2022-10-16T17:58:39;17.30;99.90
40600;DHT22;26309;50.924;4.754;2022-10-16T18:01:19;17.10;99.90
40600;DHT22;26309;50.924;4.754;2022-10-16T18:04:04;17.00;99.90
40600;DHT22;26309;50.924;4.754;2022-10-16T18:06:32;17.00;99.90
40600;DHT22;26309;50.924;4.754;2022-10-16T18:08:59;17.10;99.90
40600;DHT22;26309;50.924;4.754;2022-10-16T18:11:25;16.80;99.90
40600;DHT22;26309;50.924;4.754;2022-10-16T18:13:53;16.70;99.90
40600;DHT22;26309;50.924;4.754;2022-10-16T18:16:18;16.80;99.90
40600;DHT22;26309;50.924;4.754;2022-10-16T18:18:45;16.90;99.90
40600;DHT22;26309;50.924;4.754;2022-10-16T18:21:13;16.80;99.90
40600;DHT22;26309;50.924;4.754;2022-10-16T18:23:41;16.60;99.90
40600;DHT22;26309;50.924;4.754;2022-10-16T18:26:08;16.60;99.90
40600;DHT22;26309;50.924;4.754;2022-10-16T18:28:34;16.60;99.90
40600;DHT22;26309;50.924;4.754;2022-10-16T18:31:03;16.60;99.90
40600;DHT22;26309;50.924;4.754;2022-10-16T18:33:30;16.70;99.90
40600;DHT22;26309;50.924;4.754;2022-10-16T18:36:00;16.70;99.90
40600;DHT22;26309;50.924;4.754;2022-10-16T18:38:27;16.60;99.90
40600;DHT22;26309;50.924;4.754;2022-10-16T18:40:53;16.80;99.90
40600;DHT22;26309;50.924;4.754;2022-10-16T18:43:18;16.60;99.90
40600;DHT22;26309;50.924;4.754;2022-10-16T18:45:55;16.50;99.90
40600;DHT22;26309;50.924;4.754;2022-10-16T18:48:21;16.50;99.90
40600;DHT22;26309;50.924;4.754;2022-10-16T18:50:47;16.40;99.90
40600;DHT22;26309;50.924;4.754;2022-10-16T18:53:12;16.30;99.90
40600;DHT22;26309;50.924;4.754;2022-10-16T18:55:39;16.40;99.90
40600;DHT22;26309;50.924;4.754;2022-10-16T18:58:05;16.50;99.90
40600;DHT22;26309;50.924;4.754;2022-10-16T19:00:31;16.50;99.90
40600;DHT22;26309;50.924;4.754;2022-10-16T19:02:57;16.60;99.90
40600;DHT22;26309;50.924;4.754;2022-10-16T19:05:23;16.50;99.90
40600;DHT22;26309;50.924;4.754;2022-10-16T19:07:49;16.60;99.90
40600;DHT22;26309;50.924;4.754;2022-10-16T19:10:15;16.60;99.90
40600;DHT22;26309;50.924;4.754;2022-10-16T19:12:40;16.50;99.90
40600;DHT22;26309;50.924;4.754;2022-10-16T19:15:13;16.50;99.90
40600;DHT22;26309;50.924;4.754;2022-10-16T19:17:45;16.50;99.90
40600;DHT22;26309;50.924;4.754;2022-10-16T19:20:10;16.50;99.90
40600;DHT22;26309;50.924;4.754;2022-10-16T19:22:36;16.60;99.90
40600;DHT22;26309;50.924;4.754;2022-10-16T19:25:23;16.50;99.90
40600;DHT22;26309;50.924;4.754;2022-10-16T19:27:51;16.60;99.90
40600;DHT22;26309;50.924;4.754;2022-10-16T19:30:18;16.50;99.90
40600;DHT22;26309;50.924;4.754;2022-10-16T19:32:44;16.50;99.90
40600;DHT22;26309;50.924;4.754;2022-10-16T19:35:11;16.40;99.90
40600;DHT22;26309;50.924;4.754;2022-10-16T19:37:37;16.40;99.90
40600;DHT22;26309;50.924;4.754;2022-10-16T19:40:04;16.30;99.90
40600;DHT22;26309;50.924;4.754;2022-10-16T19:42:29;16.30;99.90
40600;DHT22;26309;50.924;4.754;2022-10-16T19:44:55;16.40;99.90
40600;DHT22;26309;50.924;4.754;2022-10-16T19:47:21;16.30;99.90
40600;DHT22;26309;50.924;4.754;2022-10-16T19:49:48;16.30;99.90
40600;DHT22;26309;50.924;4.754;2022-10-16T19:52:14;16.10;99.90
40600;DHT22;26309;50.924;4.754;2022-10-16T19:54:41;16.30;99.90
40600;DHT22;26309;50.924;4.754;2022-10-16T19:57:07;16.20;99.90
40600;DHT22;26309;50.924;4.754;2022-10-16T19:59:34;16.10;99.90
40600;DHT22;26309;50.924;4.754;2022-10-16T20:01:59;16.00;99.90
40600;DHT22;26309;50.924;4.754;2022-10-16T20:04:26;16.00;99.90
40600;DHT22;26309;50.924;4.754;2022-10-16T20:06:51;16.00;99.90
40600;DHT22;26309;50.924;4.754;2022-10-16T20:09:17;16.00;99.90
40600;DHT22;26309;50.924;4.754;2022-10-16T20:11:43;15.90;99.90
40600;DHT22;26309;50.924;4.754;2022-10-16T20:14:09;15.80;99.90
40600;DHT22;26309;50.924;4.754;2022-10-16T20:16:35;15.80;99.90
40600;DHT22;26309;50.924;4.754;2022-10-16T20:19:02;15.70;99.90
40600;DHT22;26309;50.924;4.754;2022-10-16T20:21:30;15.80;99.90
40600;DHT22;26309;50.924;4.754;2022-10-16T20:23:58;15.70;99.90
40600;DHT22;26309;50.924;4.754;2022-10-16T20:26:24;15.80;99.90
40600;DHT22;26309;50.924;4.754;2022-10-16T20:28:52;15.70;99.90
40600;DHT22;26309;50.924;4.754;2022-10-16T20:31:20;15.70;99.90
40600;DHT22;26309;50.924;4.754;2022-10-16T20:33:48;15.80;99.90
40600;DHT22;26309;50.924;4.754;2022-10-16T20:36:15;15.90;99.90
40600;DHT22;26309;50.924;4.754;2022-10-16T20:38:42;16.10;99.90
40600;DHT22;26309;50.924;4.754;2022-10-16T20:41:08;16.00;99.90
40600;DHT22;26309;50.924;4.754;2022-10-16T20:43:37;16.00;99.90
40600;DHT22;26309;50.924;4.754;2022-10-16T20:46:06;16.10;99.90
40600;DHT22;26309;50.924;4.754;2022-10-16T20:48:35;16.00;99.90
40600;DHT22;26309;50.924;4.754;2022-10-16T20:51:16;15.90;99.90
40600;DHT22;26309;50.924;4.754;2022-10-16T20:53:43;15.80;99.90
40600;DHT22;26309;50.924;4.754;2022-10-16T20:56:14;15.80;99.90
40600;DHT22;26309;50.924;4.754;2022-10-16T20:58:43;15.70;99.90
40600;DHT22;26309;50.924;4.754;2022-10-16T21:01:12;15.70;99.90
40600;DHT22;26309;50.924;4.754;2022-10-16T21:03:38;15.90;99.90
40600;DHT22;26309;50.924;4.754;2022-10-16T21:06:06;15.80;99.90
40600;DHT22;26309;50.924;4.754;2022-10-16T21:08:41;15.70;99.90
40600;DHT22;26309;50.924;4.754;2022-10-16T21:11:17;15.60;99.90
40600;DHT22;26309;50.924;4.754;2022-10-16T21:13:44;15.60;99.90
40600;DHT22;26309;50.924;4.754;2022-10-16T21:16:12;15.50;99.90
40600;DHT22;26309;50.924;4.754;2022-10-16T21:18:39;15.60;99.90
40600;DHT22;26309;50.924;4.754;2022-10-16T21:21:05;15.60;99.90
40600;DHT22;26309;50.924;4.754;2022-10-16T21:23:32;15.50;99.90
40600;DHT22;26309;50.924;4.754;2022-10-16T21:25:58;15.30;99.90
40600;DHT22;26309;50.924;4.754;2022-10-16T21:28:30;15.20;99.90
40600;DHT22;26309;50.924;4.754;2022-10-16T21:34:18;15.20;99.90
40600;DHT22;26309;50.924;4.754;2022-10-16T21:36:44;15.20;99.90
40600;DHT22;26309;50.924;4.754;2022-10-16T21:39:23;15.20;99.90
40600;DHT22;26309;50.924;4.754;2022-10-16T21:41:56;15.20;99.90
40600;DHT22;26309;50.924;4.754;2022-10-16T21:44:24;15.20;99.90
40600;DHT22;26309;50.924;4.754;2022-10-16T21:46:53;15.30;99.90
40600;DHT22;26309;50.924;4.754;2022-10-16T21:49:19;15.30;99.90
40600;DHT22;26309;50.924;4.754;2022-10-16T21:51:48;15.20;99.90
40600;DHT22;26309;50.924;4.754;2022-10-16T21:54:18;15.30;99.90
40600;DHT22;26309;50.924;4.754;2022-10-16T21:56:44;15.20;99.90
40600;DHT22;26309;50.924;4.754;2022-10-16T21:59:11;15.30;99.90
40600;DHT22;26309;50.924;4.754;2022-10-16T22:01:38;15.20;99.90
40600;DHT22;26309;50.924;4.754;2022-10-16T22:04:04;15.20;99.90
40600;DHT22;26309;50.924;4.754;2022-10-16T22:06:30;15.20;99.90
40600;DHT22;26309;50.924;4.754;2022-10-16T22:08:57;15.20;99.90
40600;DHT22;26309;50.924;4.754;2022-10-16T22:11:36;15.20;99.90
40600;DHT22;26309;50.924;4.754;2022-10-16T22:14:07;15.20;99.90
40600;DHT22;26309;50.924;4.754;2022-10-16T22:16:34;15.10;99.90
40600;DHT22;26309;50.924;4.754;2022-10-16T22:19:00;15.10;99.90
40600;DHT22;26309;50.924;4.754;2022-10-16T22:21:28;15.10;99.90
40600;DHT22;26309;50.924;4.754;2022-10-16T22:23:57;15.10;99.90
40600;DHT22;26309;50.924;4.754;2022-10-16T22:26:23;15.00;99.90
40600;DHT22;26309;50.924;4.754;2022-10-16T22:28:49;15.00;99.90
40600;DHT22;26309;50.924;4.754;2022-10-16T22:31:15;15.00;99.90
40600;DHT22;26309;50.924;4.754;2022-10-16T22:33:42;15.00;99.90
40600;DHT22;26309;50.924;4.754;2022-10-16T22:36:12;15.10;99.90
40600;DHT22;26309;50.924;4.754;2022-10-16T22:38:38;15.10;99.90
40600;DHT22;26309;50.924;4.754;2022-10-16T22:41:10;15.10;99.90
40600;DHT22;26309;50.924;4.754;2022-10-16T22:43:42;15.20;99.90
40600;DHT22;26309;50.924;4.754;2022-10-16T22:46:14;15.40;99.90
40600;DHT22;26309;50.924;4.754;2022-10-16T22:48:42;15.30;99.90
40600;DHT22;26309;50.924;4.754;2022-10-16T22:51:08;15.20;99.90
40600;DHT22;26309;50.924;4.754;2022-10-16T22:53:34;15.30;99.90
40600;DHT22;26309;50.924;4.754;2022-10-16T22:56:01;15.40;99.90
40600;DHT22;26309;50.924;4.754;2022-10-16T22:58:27;15.50;99.90
40600;DHT22;26309;50.924;4.754;2022-10-16T23:00:53;15.60;99.90
40600;DHT22;26309;50.924;4.754;2022-10-16T23:03:18;15.50;99.90
40600;DHT22;26309;50.924;4.754;2022-10-16T23:05:44;15.50;99.90
40600;DHT22;26309;50.924;4.754;2022-10-16T23:08:11;15.40;99.90
40600;DHT22;26309;50.924;4.754;2022-10-16T23:10:42;15.50;99.90
40600;DHT22;26309;50.924;4.754;2022-10-16T23:13:09;15.50;99.90
40600;DHT22;26309;50.924;4.754;2022-10-16T23:15:39;15.60;99.90
40600;DHT22;26309;50.924;4.754;2022-10-16T23:18:05;15.60;99.90
40600;DHT22;26309;50.924;4.754;2022-10-16T23:20:30;15.80;99.90
40600;DHT22;26309;50.924;4.754;2022-10-16T23:22:56;15.80;99.90
40600;DHT22;26309;50.924;4.754;2022-10-16T23:25:22;15.80;99.90
40600;DHT22;26309;50.924;4.754;2022-10-16T23:27:48;15.80;99.90
40600;DHT22;26309;50.924;4.754;2022-10-16T23:30:14;16.00;99.90
40600;DHT22;26309;50.924;4.754;2022-10-16T23:32:40;16.00;99.90
40600;DHT22;26309;50.924;4.754;2022-10-16T23:35:06;16.00;99.90
40600;DHT22;26309;50.924;4.754;2022-10-16T23:37:32;16.10;99.90
40600;DHT22;26309;50.924;4.754;2022-10-16T23:39:58;16.30;99.90
40600;DHT22;26309;50.924;4.754;2022-10-16T23:42:24;16.30;99.90
40600;DHT22;26309;50.924;4.754;2022-10-16T23:44:49;16.20;99.90
40600;DHT22;26309;50.924;4.754;2022-10-16T23:47:15;16.30;99.90
40600;DHT22;26309;50.924;4.754;2022-10-16T23:49:41;16.30;99.90
40600;DHT22;26309;50.924;4.754;2022-10-16T23:52:07;16.30;99.90
40600;DHT22;26309;50.924;4.754;2022-10-16T23:54:32;16.30;99.90
40600;DHT22;26309;50.924;4.754;2022-10-16T23:56:58;16.30;99.90
40600;DHT22;26309;50.924;4.754;2022-10-16T23:59:24;16.20;99.90
